Time;durP1;ratioP1;P1;durP2;ratioP2;P2;SDS_P1;SDS_P2;PMS_P1;PMS_P2;Temp;Humidity;BMP_temperature;BMP_pressure;BME280_temperature;BME280_humidity;BME280_pressure;Samples;Min_cycle;Max_cycle;Signal;HPM_P1;HPM_P2
2023/09/28 00:00:45;;;;;;;11.50;4.93;;;;;;;-145.68;73.53;73315.91;10410466;28;20225;-73
2023/09/28 00:05:46;;;;;;;14.15;5.18;;;;;;;-145.68;71.96;73303.91;10411024;28;20180;-73
2023/09/28 00:10:46;;;;;;;14.23;6.13;;;;;;;-145.68;70.77;73289.94;10410295;28;20874;-73
2023/09/28 00:15:46;;;;;;;8.35;4.72;;;;;;;-145.68;69.72;73271.94;10409909;28;20196;-73
2023/09/28 00:20:47;;;;;;;15.98;5.55;;;;;;;-145.68;70.40;73311.91;10410637;28;20337;-73
2023/09/28 00:25:47;;;;;;;13.20;5.03;;;;;;;-145.68;69.79;73289.94;10392160;28;20203;-73
2023/09/28 00:30:48;;;;;;;8.20;5.28;;;;;;;-145.68;69.96;73305.91;10409841;28;20224;-73
2023/09/28 00:35:49;;;;;;;11.27;5.50;;;;;;;-145.68;70.34;73317.91;10409279;28;20196;-73
2023/09/28 00:40:50;;;;;;;10.45;5.03;;;;;;;-145.68;69.48;73307.91;10415049;28;20197;-73
2023/09/28 00:45:51;;;;;;;13.30;5.43;;;;;;;-145.68;70.12;73331.91;10413974;28;20558;-73
2023/09/28 00:50:51;;;;;;;17.67;5.38;;;;;;;-145.68;69.48;73311.91;10413558;28;20236;-73
2023/09/28 00:55:53;;;;;;;14.32;5.45;;;;;;;-145.68;69.71;73329.91;10407796;28;20203;-73
2023/09/28 01:00:53;;;;;;;11.50;5.25;;;;;;;-145.68;69.70;73323.91;10408145;28;20196;-73
2023/09/28 01:05:54;;;;;;;10.40;4.75;;;;;;;-145.68;69.72;73339.91;10408288;28;20204;-73
2023/09/28 01:10:54;;;;;;;9.48;6.20;;;;;;;-145.68;69.55;73343.88;10413670;28;20639;-73
2023/09/28 01:15:55;;;;;;;11.93;5.35;;;;;;;-145.68;69.92;73347.88;10409466;28;20192;-73
2023/09/28 01:20:57;;;;;;;8.57;5.28;;;;;;;-145.68;70.18;73355.88;10390993;28;20574;-73
2023/09/28 01:25:58;;;;;;;13.18;5.40;;;;;;;-145.68;70.02;73355.88;10413447;28;20611;-73
2023/09/28 01:30:59;;;;;;;10.32;5.85;;;;;;;-145.68;69.63;73355.88;10407192;28;20220;-73
2023/09/28 01:35:59;;;;;;;8.95;5.55;;;;;;;-145.68;69.50;73355.88;10407841;28;20660;-73
2023/09/28 01:41:00;;;;;;;13.45;5.78;;;;;;;-145.68;69.02;73331.91;10407403;28;20258;-73
2023/09/28 01:46:00;;;;;;;11.32;5.97;;;;;;;-145.68;68.89;73335.91;10412858;28;20204;-73
2023/09/28 01:51:01;;;;;;;11.90;5.82;;;;;;;-145.68;68.77;73341.91;10405781;28;20228;-73
2023/09/28 01:56:04;;;;;;;10.82;5.57;;;;;;;-145.68;69.48;73347.88;10405915;28;20228;-73
2023/09/28 02:01:04;;;;;;;14.18;5.78;;;;;;;-145.68;69.08;73335.91;10405941;28;20184;-73
2023/09/28 02:06:05;;;;;;;7.45;5.22;;;;;;;-145.68;69.45;73349.88;10412246;28;20652;-72
2023/09/28 02:11:05;;;;;;;12.63;6.07;;;;;;;-145.68;69.77;73359.88;10405089;28;20269;-73
2023/09/28 02:16:10;;;;;;;8.13;5.20;;;;;;;-145.68;70.26;73363.88;10405292;28;20200;-73
2023/09/28 02:21:14;;;;;;;10.82;5.53;;;;;;;-145.68;70.97;73377.88;10405148;28;20238;-73
2023/09/28 02:26:14;;;;;;;8.40;5.45;;;;;;;-145.68;71.47;73403.84;10401043;28;20315;-73
2023/09/28 02:31:14;;;;;;;11.52;5.93;;;;;;;-145.68;71.99;73399.84;10405009;28;20222;-73
2023/09/28 02:36:15;;;;;;;13.30;6.38;;;;;;;-145.68;71.84;73387.88;10405291;28;20565;-73
2023/09/28 02:41:15;;;;;;;10.25;5.32;;;;;;;-145.68;70.96;73375.88;10406217;28;20192;-73
2023/09/28 02:46:16;;;;;;;8.75;5.35;;;;;;;-145.68;71.57;73385.88;10405546;28;20192;-73
2023/09/28 02:51:17;;;;;;;16.17;5.88;;;;;;;-145.68;72.04;73391.84;10403920;28;20236;-73
2023/09/28 02:56:17;;;;;;;12.70;5.55;;;;;;;-145.68;73.29;73437.84;10403630;28;20556;-73
2023/09/28 03:01:21;;;;;;;11.55;6.03;;;;;;;-145.68;73.40;73429.84;10406555;28;20594;-72
2023/09/28 03:06:21;;;;;;;9.85;6.10;;;;;;;-145.68;75.28;73485.81;10405930;28;20200;-72
2023/09/28 03:11:22;;;;;;;13.07;6.55;;;;;;;-145.68;77.24;73511.78;10408590;28;20580;-73
2023/09/28 03:16:23;;;;;;;13.60;6.22;;;;;;;-145.68;77.16;73509.78;10404839;28;20193;-72
2023/09/28 03:21:23;;;;;;;11.55;5.97;;;;;;;-145.68;76.71;73499.78;10404247;28;20269;-73
2023/09/28 03:26:24;;;;;;;14.20;6.32;;;;;;;-145.68;77.68;73509.78;10403308;28;20185;-72
2023/09/28 03:31:29;;;;;;;8.52;6.18;;;;;;;-145.68;77.34;73501.78;10403272;28;20224;-73
2023/09/28 03:36:32;;;;;;;8.02;5.57;;;;;;;-145.68;76.49;73497.78;10404145;28;20188;-73
2023/09/28 03:41:32;;;;;;;11.48;6.40;;;;;;;-145.68;77.71;73537.78;10404872;28;20197;-73
2023/09/28 03:46:33;;;;;;;9.15;6.63;;;;;;;-145.68;79.89;73571.75;10403375;28;20196;-72
2023/09/28 03:51:33;;;;;;;13.43;6.88;;;;;;;-145.68;82.74;73615.72;10449722;28;20224;-72
2023/09/28 03:56:34;;;;;;;14.00;6.70;;;;;;;-145.68;83.73;73595.75;10445656;28;20203;-73
2023/09/28 04:01:34;;;;;;;12.38;7.15;;;;;;;-145.68;83.15;73583.75;10444471;28;20197;-73
2023/09/28 04:06:34;;;;;;;13.18;6.90;;;;;;;-145.68;82.73;73573.75;10426173;28;20257;-72
2023/09/28 04:11:35;;;;;;;10.00;5.82;;;;;;;-145.68;82.00;73559.75;10426793;28;20767;-72
2023/09/28 04:16:36;;;;;;;8.70;6.43;;;;;;;-145.68;81.71;73573.75;10445221;28;20575;-73
2023/09/28 04:21:36;;;;;;;17.50;6.55;;;;;;;-145.68;80.40;73543.78;10445949;28;20194;-73
2023/09/28 04:26:37;;;;;;;7.82;6.03;;;;;;;-145.68;79.77;73531.78;10434045;28;20195;-72
2023/09/28 04:31:37;;;;;;;10.25;6.25;;;;;;;-145.68;79.03;73529.78;10452118;28;20230;-73
2023/09/28 04:36:38;;;;;;;10.80;6.30;;;;;;;-145.68;79.21;73535.78;10456486;28;20675;-73
2023/09/28 04:41:39;;;;;;;10.90;6.82;;;;;;;-145.68;79.44;73553.75;10451678;28;20187;-73
2023/09/28 04:46:40;;;;;;;12.65;6.32;;;;;;;-145.68;79.85;73553.75;10450552;28;20227;-73
2023/09/28 04:51:40;;;;;;;11.30;6.22;;;;;;;-145.68;80.41;73571.75;10450712;28;20214;-73
2023/09/28 04:56:41;;;;;;;11.60;6.80;;;;;;;-145.68;81.97;73601.72;10451513;28;20252;-73
2023/09/28 05:01:41;;;;;;;13.13;6.82;;;;;;;-145.68;83.84;73625.72;10450451;28;20644;-72
2023/09/28 05:06:42;;;;;;;12.95;7.57;;;;;;;-145.68;84.46;73633.72;10415925;28;20188;-73
2023/09/28 05:11:42;;;;;;;11.63;7.00;;;;;;;-145.68;85.40;73655.69;10450275;28;20662;-73
2023/09/28 05:16:43;;;;;;;12.23;6.30;;;;;;;-145.68;86.96;73679.69;10451743;28;20250;-73
2023/09/28 05:21:44;;;;;;;12.88;7.07;;;;;;;-145.68;89.06;73697.69;10453646;28;20637;-73
2023/09/28 05:26:44;;;;;;;12.10;7.20;;;;;;;-145.68;91.80;73707.69;10449515;28;20313;-73
2023/09/28 05:31:46;;;;;;;12.88;6.60;;;;;;;-145.68;92.87;73711.66;10449934;28;20224;-72
2023/09/28 05:36:47;;;;;;;11.13;7.35;;;;;;;-145.68;93.83;73727.66;10453442;28;20195;-73
2023/09/28 05:41:47;;;;;;;13.15;7.25;;;;;;;-145.68;94.93;73745.66;10453169;28;20709;-73
2023/09/28 05:46:48;;;;;;;17.67;7.47;;;;;;;-145.68;98.24;73783.63;10433860;28;20211;-73
2023/09/28 05:51:49;;;;;;;8.43;7.28;;;;;;;-145.68;100.00;73789.63;10449861;28;20238;-73
2023/09/28 05:56:49;;;;;;;13.32;7.63;;;;;;;-145.68;100.00;73783.63;10449566;28;20716;-73
2023/09/28 06:01:50;;;;;;;17.20;7.55;;;;;;;-145.68;100.00;73767.66;10448010;28;20206;-73
2023/09/28 06:06:50;;;;;;;15.15;7.72;;;;;;;-145.68;100.00;73787.63;10448468;28;20206;-73
2023/09/28 06:11:52;;;;;;;10.13;7.88;;;;;;;-145.68;99.62;73701.69;10448494;28;20223;-73
2023/09/28 06:16:52;;;;;;;16.98;6.95;;;;;;;-145.68;89.85;73585.75;10447513;28;20223;-73
2023/09/28 06:21:54;;;;;;;13.82;7.03;;;;;;;-145.68;81.31;73489.81;10447503;28;20203;-72
2023/09/28 06:26:55;;;;;;;14.68;6.60;;;;;;;-145.68;76.02;73451.81;10447270;28;20184;-72
2023/09/28 06:31:55;;;;;;;7.95;6.40;;;;;;;-145.68;72.21;73359.88;10452584;28;20281;-72
2023/09/28 06:36:55;;;;;;;9.75;6.53;;;;;;;-145.68;69.95;73351.88;10446833;28;20195;-72
2023/09/28 06:41:56;;;;;;;9.07;5.63;;;;;;;-145.68;69.09;73299.91;10442561;28;20655;-73
2023/09/28 06:46:59;;;;;;;9.80;5.70;;;;;;;-145.68;67.29;73255.94;10445832;28;20264;-73
2023/09/28 06:51:59;;;;;;;10.90;6.80;;;;;;;-145.68;66.15;73233.97;10448638;28;20211;-73
2023/09/28 06:57:02;;;;;;;14.63;6.22;;;;;;;-145.68;65.30;73217.97;10446023;28;20200;-73
2023/09/28 07:02:04;;;;;;;11.50;5.93;;;;;;;-145.68;64.20;73207.97;10454525;28;20811;-73
2023/09/28 07:07:05;;;;;;;13.48;6.45;;;;;;;-145.68;63.02;73148.03;10446588;28;20199;-73
2023/09/28 07:12:05;;;;;;;12.48;5.72;;;;;;;-145.68;61.60;73068.06;10447850;28;20195;-73
2023/09/28 07:17:06;;;;;;;14.93;6.43;;;;;;;-145.68;59.50;73024.13;10445690;28;20207;-73
2023/09/28 07:22:06;;;;;;;10.77;5.65;;;;;;;-145.68;58.83;73020.13;10427948;28;20200;-73
2023/09/28 07:27:07;;;;;;;13.70;6.30;;;;;;;-145.68;57.23;72938.16;10446725;28;20202;-73
2023/09/28 07:32:08;;;;;;;12.30;5.50;;;;;;;-145.68;53.64;72774.31;10461620;28;20722;-72
2023/09/28 07:37:08;;;;;;;7.28;5.40;;;;;;;-145.68;51.38;72662.38;10473584;28;20617;-73
2023/09/28 07:42:08;;;;;;;13.10;4.70;;;;;;;-145.68;49.38;72516.50;10460591;28;20198;-74
2023/09/28 07:47:09;;;;;;;9.30;4.80;;;;;;;-145.68;47.22;72440.56;10446236;28;20238;-73
2023/09/28 07:52:09;;;;;;;11.40;4.35;;;;;;;-145.68;46.57;72376.63;10464325;28;20704;-74
2023/09/28 07:57:10;;;;;;;14.82;5.13;;;;;;;-145.68;47.25;72544.50;10475996;28;20545;-74
2023/09/28 08:02:11;;;;;;;8.85;4.78;;;;;;;-145.68;49.46;72732.34;10471933;28;20191;-73
2023/09/28 08:07:11;;;;;;;9.48;4.20;;;;;;;-145.68;47.39;72620.41;10471049;28;20199;-74
2023/09/28 08:12:12;;;;;;;6.35;4.15;;;;;;;-145.68;45.17;72404.59;10477600;28;20233;-74
2023/09/28 08:17:12;;;;;;;6.82;4.03;;;;;;;-145.68;42.27;72244.75;10474812;28;20200;-74
2023/09/28 08:22:13;;;;;;;9.85;4.70;;;;;;;-145.68;44.17;72402.59;10479644;28;20198;-74
2023/09/28 08:27:13;;;;;;;7.97;4.13;;;;;;;-145.68;43.01;72368.63;10475401;28;20559;-74
2023/09/28 08:32:13;;;;;;;6.70;4.10;;;;;;;-145.68;42.74;72342.66;10478276;28;20187;-72
2023/09/28 08:37:14;;;;;;;7.88;3.97;;;;;;;-145.68;41.76;72306.69;10468079;28;20184;-73
2023/09/28 08:42:15;;;;;;;11.07;3.65;;;;;;;-145.68;42.09;72368.63;10468349;28;20203;-73
2023/09/28 08:47:19;;;;;;;9.98;3.88;;;;;;;-145.68;42.04;72338.66;10451077;28;20232;-74
2023/09/28 08:52:19;;;;;;;7.00;3.90;;;;;;;-145.68;41.21;72268.72;10475176;28;20554;-74
2023/09/28 08:57:20;;;;;;;5.25;3.83;;;;;;;-145.68;40.05;72156.84;10459248;28;20191;-74
2023/09/28 09:02:21;;;;;;;5.72;3.50;;;;;;;-145.68;38.83;72136.84;10464203;28;20230;-73
2023/09/28 09:07:21;;;;;;;6.57;2.85;;;;;;;-145.68;38.61;72244.75;10451500;28;20256;-73
2023/09/28 09:12:22;;;;;;;7.38;3.70;;;;;;;-145.68;41.26;72410.59;10463537;28;20656;-73
2023/09/28 09:17:31;;;;;;;6.90;3.30;;;;;;;-145.68;39.18;72146.84;10468404;28;20195;-74
2023/09/28 09:22:32;;;;;;;7.10;3.75;;;;;;;-145.68;38.16;72140.84;10454995;28;20200;-74
2023/09/28 09:27:32;;;;;;;5.63;2.97;;;;;;;-145.68;37.47;72096.88;10450530;28;20215;-74
2023/09/28 09:32:34;;;;;;;4.82;3.15;;;;;;;-145.68;38.34;72188.81;10460803;28;20275;-73
2023/09/28 09:37:40;;;;;;;8.48;3.47;;;;;;;-145.68;38.65;72262.72;10467701;28;20584;-73
2023/09/28 09:42:41;;;;;;;9.38;3.58;;;;;;;-145.68;37.32;72024.97;10471935;28;20825;-74
2023/09/28 09:47:44;;;;;;;4.50;3.40;;;;;;;-145.68;36.59;72144.84;10465893;28;20220;-73
2023/09/28 09:52:45;;;;;;;5.70;3.22;;;;;;;-145.68;36.13;71951.03;10437766;28;20230;-74
2023/09/28 09:57:47;;;;;;;4.97;3.03;;;;;;;-145.68;35.05;71953.03;10432858;28;20206;-75
2023/09/28 10:02:51;;;;;;;4.53;3.22;;;;;;;-145.68;34.93;71877.09;10430107;28;20574;-74
2023/09/28 10:07:51;;;;;;;6.57;3.08;;;;;;;-145.68;33.24;71691.28;10429183;28;20763;-74
2023/09/28 10:12:52;;;;;;;8.20;3.05;;;;;;;-145.68;37.42;72304.69;10431182;28;20196;-74
2023/09/28 10:17:53;;;;;;;3.80;2.63;;;;;;;-145.68;38.14;72192.78;10432203;28;20199;-74
2023/09/28 10:22:54;;;;;;;5.25;3.10;;;;;;;-145.68;36.21;71963.03;10446445;28;20208;-74
2023/09/28 10:27:58;;;;;;;3.97;2.50;;;;;;;-145.68;32.82;71779.19;10445820;28;20215;-74
2023/09/28 10:33:09;;;;;;;9.00;2.55;;;;;;;-145.68;32.98;71771.22;10428790;28;20187;-74
2023/09/28 10:38:22;;;;;;;5.82;3.17;;;;;;;-145.68;33.69;71893.09;10439893;28;20210;-74
2023/09/28 10:43:30;;;;;;;4.55;2.85;;;;;;;-145.68;32.61;71633.34;10455629;28;20196;-74
2023/09/28 10:48:44;;;;;;;7.47;2.58;;;;;;;-145.68;32.13;71785.19;10453438;28;20284;-74
2023/09/28 10:53:45;;;;;;;3.95;2.50;;;;;;;-145.68;32.84;71837.16;10451101;28;20195;-74
2023/09/28 10:58:46;;;;;;;2.92;2.63;;;;;;;-145.68;32.23;71713.28;10444987;28;20195;-74
2023/09/28 11:03:49;;;;;;;3.75;2.78;;;;;;;-145.68;34.33;72072.91;10444255;28;20202;-74
2023/09/28 11:08:50;;;;;;;6.65;2.80;;;;;;;-145.68;32.33;71785.19;10443534;28;20222;-74
2023/09/28 11:13:50;;;;;;;4.53;2.70;;;;;;;-145.68;33.08;71885.09;10445612;28;20191;-75
2023/09/28 11:18:51;;;;;;;5.63;2.70;;;;;;;-145.68;34.00;71837.16;10444429;28;20659;-75
2023/09/28 11:23:52;;;;;;;11.20;2.90;;;;;;;-145.68;30.94;71499.50;10415827;28;20187;-74
2023/09/28 11:28:54;;;;;;;5.97;3.30;;;;;;;-145.68;30.39;71641.34;10457478;28;20226;-74
2023/09/28 11:33:56;;;;;;;5.90;2.50;;;;;;;-145.68;31.91;71807.19;10465584;28;20561;-74
2023/09/28 11:38:57;;;;;;;4.45;2.40;;;;;;;-145.68;29.75;71397.63;10448783;28;20188;-75
2023/09/28 11:43:57;;;;;;;4.28;2.28;;;;;;;-145.68;29.80;71707.28;10450403;28;20203;-74
2023/09/28 11:49:02;;;;;;;4.05;2.53;;;;;;;-145.68;30.06;71711.28;10448805;28;20238;-74
2023/09/28 11:54:11;;;;;;;4.85;2.90;;;;;;;-145.68;30.11;71693.28;10473503;28;20580;-75
2023/09/28 11:59:17;;;;;;;2.78;2.10;;;;;;;-145.68;30.31;71681.31;10473041;28;20596;-75
2023/09/28 12:04:18;;;;;;;3.13;2.50;;;;;;;-145.68;30.80;71721.25;10458825;28;20179;-74
2023/09/28 12:09:19;;;;;;;3.75;2.58;;;;;;;-145.68;31.59;71845.13;10447511;28;20990;-75
2023/09/28 12:14:19;;;;;;;4.18;2.50;;;;;;;-145.68;34.16;72116.88;10470560;28;20570;-74
2023/09/28 12:19:20;;;;;;;3.15;2.35;;;;;;;-145.68;31.81;71859.13;10455917;28;20188;-75
2023/09/28 12:24:21;;;;;;;7.70;2.88;;;;;;;-145.68;33.95;72028.94;10451040;28;20196;-75
2023/09/28 12:29:21;;;;;;;7.82;2.50;;;;;;;-145.68;31.90;71801.19;10450765;28;20208;-75
2023/09/28 12:34:25;;;;;;;4.60;2.50;;;;;;;-145.68;32.42;71857.13;10456848;28;20209;-74
2023/09/28 12:39:25;;;;;;;4.28;2.50;;;;;;;-145.68;29.80;71507.50;10449311;28;20278;-75
2023/09/28 12:44:26;;;;;;;4.28;2.40;;;;;;;-145.68;34.13;72000.97;10449580;28;20191;-74
2023/09/28 12:49:26;;;;;;;4.03;2.40;;;;;;;-145.68;31.40;71657.34;10449553;28;20228;-74
2023/09/28 12:54:27;;;;;;;4.65;2.45;;;;;;;-145.68;32.68;71889.09;10449755;28;20184;-75
2023/09/28 12:59:27;;;;;;;6.18;2.47;;;;;;;-145.68;31.64;71697.28;10449494;28;20207;-75
2023/09/28 13:04:28;;;;;;;5.97;2.80;;;;;;;-145.68;29.34;71291.75;10431084;28;20205;-75
2023/09/28 13:09:31;;;;;;;6.10;2.90;;;;;;;-145.68;28.41;71309.72;10437829;28;20584;-74
2023/09/28 13:14:31;;;;;;;3.85;2.60;;;;;;;-145.68;29.73;71497.50;10450014;28;20493;-74
2023/09/28 13:19:32;;;;;;;3.47;2.67;;;;;;;-145.68;30.37;71525.47;10448755;28;20200;-74
2023/09/28 13:24:32;;;;;;;3.40;2.60;;;;;;;-145.68;31.11;71653.34;10447882;28;20577;-74
2023/09/28 13:29:32;;;;;;;4.45;2.60;;;;;;;-145.68;31.23;71663.31;10449458;28;20219;-74
2023/09/28 13:34:33;;;;;;;6.70;2.70;;;;;;;-145.68;31.62;71749.22;10447174;28;20258;-74
2023/09/28 13:39:35;;;;;;;5.93;2.87;;;;;;;-145.68;31.36;71663.31;10451501;28;20574;-74
2023/09/28 13:44:37;;;;;;;4.53;2.38;;;;;;;-145.68;30.39;71421.59;10428663;28;20455;-74
2023/09/28 13:49:38;;;;;;;3.25;2.58;;;;;;;-145.68;29.25;71383.63;10452733;28;20602;-75
2023/09/28 13:54:39;;;;;;;4.47;2.60;;;;;;;-145.68;29.07;71293.72;10446915;28;20199;-75
2023/09/28 13:59:40;;;;;;;3.10;2.30;;;;;;;-145.68;27.92;71163.88;10428755;28;20212;-75
2023/09/28 14:04:40;;;;;;;4.38;2.47;;;;;;;-145.68;29.28;71563.44;10447481;28;20290;-75
2023/09/28 14:09:40;;;;;;;4.97;2.43;;;;;;;-145.68;29.98;71627.38;10446287;28;20211;-75
2023/09/28 14:14:41;;;;;;;3.35;2.40;;;;;;;-145.68;27.93;71259.78;10449031;28;20446;-75
2023/09/28 14:19:41;;;;;;;6.27;2.50;;;;;;;-145.68;30.30;71981.00;10446460;28;20236;-74
2023/09/28 14:24:42;;;;;;;5.80;2.17;;;;;;;-145.68;28.57;71623.38;10427740;28;20457;-73
2023/09/28 14:29:42;;;;;;;4.32;2.38;;;;;;;-145.68;28.63;71557.44;10445655;28;20244;-73
2023/09/28 14:34:43;;;;;;;3.63;1.92;;;;;;;-145.68;26.53;71229.81;10445106;28;20287;-74
2023/09/28 14:39:43;;;;;;;3.43;2.20;;;;;;;-145.68;25.63;71169.88;10453393;28;20184;-74
2023/09/28 14:44:43;;;;;;;2.63;2.03;;;;;;;-145.68;26.44;71285.75;10453366;28;20433;-74
2023/09/28 14:49:46;;;;;;;5.82;2.20;;;;;;;-145.68;25.56;71109.94;10451445;28;20971;-75
2023/09/28 14:54:46;;;;;;;3.90;2.10;;;;;;;-145.68;24.76;70852.28;10430574;28;20199;-75
2023/09/28 14:59:47;;;;;;;2.23;2.00;;;;;;;-145.68;24.48;70700.47;10459363;28;20218;-74
2023/09/28 15:04:48;;;;;;;2.70;2.00;;;;;;;-145.68;24.56;70836.28;10461207;28;21043;-76
2023/09/28 15:09:48;;;;;;;2.22;1.73;;;;;;;-145.68;25.10;70898.22;10445202;28;20477;-76
2023/09/28 15:14:49;;;;;;;8.15;2.63;;;;;;;-145.68;25.75;70920.19;10448103;28;20699;-73
2023/09/28 15:19:50;;;;;;;7.15;2.13;;;;;;;-145.68;27.26;71309.72;10468405;28;20184;-75
2023/09/28 15:24:51;;;;;;;4.53;2.37;;;;;;;-145.68;25.89;70890.22;10465361;28;20209;-75
2023/09/28 15:29:51;;;;;;;9.30;2.65;;;;;;;-145.68;27.36;71157.91;10452407;28;20501;-74
2023/09/28 15:34:51;;;;;;;8.40;3.40;;;;;;;-145.68;30.03;71477.53;10461355;28;20265;-76
2023/09/28 15:39:52;;;;;;;3.47;2.95;;;;;;;-145.68;29.81;71495.50;10468954;28;20186;-75
2023/09/28 15:44:52;;;;;;;12.68;4.22;;;;;;;-145.68;32.38;71597.41;10469970;28;20202;-75
2023/09/28 15:49:53;;;;;;;13.45;5.28;;;;;;;-145.68;36.81;72128.84;10468108;28;20239;-75
2023/09/28 15:54:53;;;;;;;11.48;5.60;;;;;;;-145.68;40.47;72326.69;10439275;28;20207;-74
2023/09/28 15:59:54;;;;;;;12.63;6.03;;;;;;;-145.68;44.21;72514.50;10462658;28;20188;-75
2023/09/28 16:04:55;;;;;;;15.30;5.57;;;;;;;-145.68;44.80;72510.50;10445097;28;20200;-73
2023/09/28 16:09:56;;;;;;;10.77;5.95;;;;;;;-145.68;45.60;72540.50;10445097;28;20226;-75
2023/09/28 16:14:57;;;;;;;8.43;5.88;;;;;;;-145.68;47.39;72664.38;10450275;28;20195;-74
2023/09/28 16:19:57;;;;;;;11.82;6.05;;;;;;;-145.68;48.31;72710.34;10435676;28;20620;-74
2023/09/28 16:24:57;;;;;;;13.57;6.45;;;;;;;-145.68;49.15;72770.31;10450566;28;20208;-74
2023/09/28 16:29:58;;;;;;;17.00;6.75;;;;;;;-145.68;50.03;72802.28;10452136;28;20227;-74
2023/09/28 16:34:58;;;;;;;14.50;7.20;;;;;;;-145.68;51.04;72832.25;10456016;28;20587;-74
2023/09/28 16:39:59;;;;;;;12.35;7.30;;;;;;;-145.68;51.57;72856.22;10455023;28;20188;-74
2023/09/28 16:44:59;;;;;;;12.10;6.50;;;;;;;-145.68;51.99;72884.22;10436246;28;20188;-74
2023/09/28 16:50:02;;;;;;;15.88;7.05;;;;;;;-145.68;52.71;72928.19;10456561;28;20226;-74
2023/09/28 16:55:04;;;;;;;9.93;7.13;;;;;;;-145.68;54.29;73000.13;10453256;28;20680;-74
2023/09/28 17:00:05;;;;;;;13.35;7.22;;;;;;;-145.68;56.05;73056.09;10450630;28;20200;-74
2023/09/28 17:05:06;;;;;;;14.32;6.82;;;;;;;-145.68;56.79;73092.06;10450812;28;20258;-74
2023/09/28 17:10:07;;;;;;;17.13;7.25;;;;;;;-145.68;57.62;73106.06;10451453;28;20698;-74
2023/09/28 17:15:07;;;;;;;17.73;6.88;;;;;;;-145.68;58.87;73136.03;10450887;28;20188;-74
2023/09/28 17:20:08;;;;;;;11.93;7.25;;;;;;;-145.68;60.09;73174.00;10449757;28;20233;-75
2023/09/28 17:25:12;;;;;;;13.55;7.45;;;;;;;-145.68;61.48;73198.00;10449546;28;20286;-75
2023/09/28 17:30:12;;;;;;;9.60;7.22;;;;;;;-145.68;62.13;73200.00;10457263;28;20711;-75
2023/09/28 17:35:13;;;;;;;13.45;7.43;;;;;;;-145.68;63.31;73215.97;10458978;28;20200;-75
2023/09/28 17:40:13;;;;;;;16.10;7.57;;;;;;;-145.68;62.75;73200.00;10457732;28;20196;-75
2023/09/28 17:45:15;;;;;;;17.27;8.45;;;;;;;-145.68;62.80;73205.97;10457616;28;20624;-75
2023/09/28 17:50:15;;;;;;;12.60;7.95;;;;;;;-145.68;62.45;73201.97;10458314;28;20600;-75
2023/09/28 17:55:16;;;;;;;10.55;7.75;;;;;;;-145.68;62.73;73213.97;10452943;28;20202;-75
2023/09/28 18:00:16;;;;;;;10.50;7.55;;;;;;;-145.68;63.35;73241.97;10458513;28;20224;-74
2023/09/28 18:05:16;;;;;;;11.75;7.78;;;;;;;-145.68;64.79;73265.94;10461118;28;20302;-74
2023/09/28 18:10:17;;;;;;;19.98;9.23;;;;;;;-145.68;65.91;73307.91;10454397;28;20696;-75
2023/09/28 18:15:19;;;;;;;13.80;7.95;;;;;;;-145.68;65.52;73293.94;10453177;28;20191;-74
2023/09/28 18:20:20;;;;;;;15.65;8.27;;;;;;;-145.68;66.07;73315.91;10452687;28;20191;-75
2023/09/28 18:25:20;;;;;;;11.85;7.95;;;;;;;-145.68;67.09;73347.88;10454201;28;20671;-74
2023/09/28 18:30:21;;;;;;;13.50;8.75;;;;;;;-145.68;67.73;73373.88;10446643;28;20703;-74
2023/09/28 18:35:21;;;;;;;12.90;7.57;;;;;;;-145.68;67.84;73361.88;10443765;28;20649;-74
2023/09/28 18:40:21;;;;;;;12.45;7.32;;;;;;;-145.68;67.80;73373.88;10450958;28;20187;-74
2023/09/28 18:45:23;;;;;;;13.18;8.15;;;;;;;-145.68;68.34;73391.84;10445928;28;20215;-74
2023/09/28 18:50:23;;;;;;;13.52;7.05;;;;;;;-145.68;68.97;73403.84;10445427;28;20257;-74
2023/09/28 18:55:23;;;;;;;16.85;8.10;;;;;;;-145.68;69.92;73439.84;10447751;28;20210;-74
2023/09/28 19:00:24;;;;;;;11.70;8.02;;;;;;;-145.68;71.30;73467.81;10445712;28;20184;-74
2023/09/28 19:05:24;;;;;;;17.63;8.82;;;;;;;-145.68;71.57;73483.81;10444762;28;20552;-74
2023/09/28 19:10:25;;;;;;;18.02;9.15;;;;;;;-145.68;71.57;73465.81;10446203;28;20215;-74
2023/09/28 19:15:25;;;;;;;11.30;8.73;;;;;;;-145.68;71.27;73473.81;10445582;28;20219;-74
2023/09/28 19:20:25;;;;;;;19.38;8.52;;;;;;;-145.68;71.09;73473.81;10445393;28;20682;-74
2023/09/28 19:25:26;;;;;;;14.82;8.35;;;;;;;-145.68;71.76;73511.78;10445485;28;20206;-73
2023/09/28 19:30:26;;;;;;;10.82;7.75;;;;;;;-145.68;72.21;73511.78;10445757;28;20728;-74
2023/09/28 19:35:27;;;;;;;12.52;8.52;;;;;;;-145.68;73.11;73545.78;10443083;28;20400;-74
2023/09/28 19:40:27;;;;;;;9.63;7.80;;;;;;;-145.68;72.23;73523.78;10444873;28;20575;-73
2023/09/28 19:45:28;;;;;;;13.90;7.75;;;;;;;-145.68;70.79;73517.78;10444219;28;20298;-74
2023/09/28 19:50:28;;;;;;;11.60;7.45;;;;;;;-145.68;70.06;73519.78;10447804;28;20232;-74
2023/09/28 19:55:29;;;;;;;15.73;6.80;;;;;;;-145.68;70.76;73535.78;10441278;28;20283;-73
2023/09/28 20:00:29;;;;;;;14.80;7.97;;;;;;;-145.68;71.89;73561.75;10462068;28;20191;-73
2023/09/28 20:05:29;;;;;;;10.50;7.93;;;;;;;-145.68;72.38;73581.75;10460975;28;20188;-74
2023/09/28 20:10:30;;;;;;;10.25;7.32;;;;;;;-145.68;72.20;73573.75;10457474;28;20227;-74
2023/09/28 20:15:30;;;;;;;13.23;8.07;;;;;;;-145.68;72.39;73563.75;10456566;28;20524;-74
2023/09/28 20:20:31;;;;;;;15.00;7.93;;;;;;;-145.68;72.76;73567.75;10454933;28;20284;-74
2023/09/28 20:25:31;;;;;;;11.82;7.50;;;;;;;-145.68;72.52;73555.75;10435297;28;20749;-74
2023/09/28 20:30:32;;;;;;;9.68;7.05;;;;;;;-145.68;72.36;73559.75;10450763;28;20736;-75
2023/09/28 20:35:33;;;;;;;10.57;8.23;;;;;;;-145.68;73.04;73575.75;10445824;28;20663;-74
2023/09/28 20:40:33;;;;;;;28.25;8.40;;;;;;;-145.68;73.92;73575.75;10451954;28;20188;-74
2023/09/28 20:45:38;;;;;;;11.85;8.13;;;;;;;-145.68;74.41;73581.75;10451427;28;20203;-74
2023/09/28 20:50:38;;;;;;;11.52;7.90;;;;;;;-145.68;75.02;73589.75;10367296;28;20237;-74
2023/09/28 20:55:38;;;;;;;11.57;8.43;;;;;;;-145.68;75.69;73583.75;10351297;28;20189;-74
2023/09/28 21:00:39;;;;;;;18.73;8.85;;;;;;;-145.68;76.39;73583.75;10333577;28;20193;-75
2023/09/28 21:05:39;;;;;;;11.75;8.15;;;;;;;-145.68;77.25;73585.75;10368086;28;20189;-74
2023/09/28 21:10:40;;;;;;;15.48;8.80;;;;;;;-145.68;77.68;73579.75;10369340;28;20259;-74
2023/09/28 21:15:40;;;;;;;16.50;8.48;;;;;;;-145.68;78.16;73585.75;10367788;28;20197;-74
2023/09/28 21:20:41;;;;;;;18.38;8.75;;;;;;;-145.68;78.12;73585.75;10350552;28;20185;-74
2023/09/28 21:25:41;;;;;;;18.10;8.65;;;;;;;-145.68;78.52;73581.75;10367487;28;20197;-74
2023/09/28 21:30:41;;;;;;;12.02;8.30;;;;;;;-145.68;79.10;73581.75;10368812;28;20244;-74
2023/09/28 21:35:42;;;;;;;15.13;8.77;;;;;;;-145.68;78.88;73565.75;10367195;28;20661;-74
2023/09/28 21:40:42;;;;;;;11.02;8.55;;;;;;;-145.68;78.87;73567.75;10367425;28;20188;-74
2023/09/28 21:45:43;;;;;;;17.58;9.05;;;;;;;-145.68;79.19;73577.75;10367160;28;20665;-75
2023/09/28 21:50:43;;;;;;;12.18;8.88;;;;;;;-145.68;79.61;73575.75;10399739;28;20477;-74
2023/09/28 21:55:44;;;;;;;10.63;8.15;;;;;;;-145.68;80.00;73573.75;10407368;28;20196;-74
2023/09/28 22:00:44;;;;;;;14.57;8.73;;;;;;;-145.68;79.82;73567.75;10405999;28;20196;-74
2023/09/28 22:05:48;;;;;;;14.20;9.25;;;;;;;-145.68;79.85;73571.75;10406859;28;20347;-75
2023/09/28 22:10:48;;;;;;;17.20;8.98;;;;;;;-145.68;80.46;73593.75;10406180;28;20213;-74
2023/09/28 22:15:49;;;;;;;17.35;9.43;;;;;;;-145.68;81.36;73595.75;10404289;28;20200;-74
2023/09/28 22:20:49;;;;;;;11.57;8.52;;;;;;;-145.68;81.36;73581.75;10406442;28;20540;-74
2023/09/28 22:25:51;;;;;;;17.80;9.07;;;;;;;-145.68;82.73;73611.72;10405386;28;20215;-75
2023/09/28 22:30:51;;;;;;;11.45;8.77;;;;;;;-145.68;81.74;73587.75;10387833;28;20312;-74
2023/09/28 22:35:52;;;;;;;11.27;8.73;;;;;;;-145.68;80.86;73593.75;10387312;28;20607;-74